createdAt,value
2019-02-28T04:49:14.428Z,66.76
2019-02-28T04:51:45.174Z,66.23
2019-02-28T04:54:15.673Z,65.40
2019-02-28T04:56:46.565Z,64.63
2019-02-28T04:59:17.380Z,64.29
2019-02-28T05:01:47.874Z,63.82
2019-02-28T05:04:18.441Z,63.36
2019-02-28T05:06:48.972Z,63.02
2019-02-28T05:09:19.504Z,62.67
2019-02-28T05:11:50.033Z,62.51
2019-02-28T05:14:23.627Z,62.02
2019-02-28T05:16:52.838Z,61.67
2019-02-28T05:19:23.368Z,61.27
2019-02-28T05:21:54.345Z,60.87
2019-02-28T05:24:25.143Z,60.49
2019-02-28T05:26:57.313Z,59.94
2019-02-28T05:29:28.971Z,59.70
2019-02-28T05:32:00.945Z,59.19
2019-02-28T05:34:31.783Z,58.76
2019-02-28T05:37:02.312Z,58.64
2019-02-28T05:39:32.836Z,58.64
2019-02-28T05:42:03.334Z,58.10
2019-02-28T05:44:33.901Z,57.63
2019-02-28T05:47:04.428Z,57.65
2019-02-28T05:49:35.057Z,57.58
2019-02-28T05:52:05.586Z,57.29
2019-02-28T05:54:36.216Z,57.22
2019-02-28T05:57:08.187Z,57.11
2019-02-28T05:59:38.927Z,56.91
2019-02-28T06:02:09.552Z,56.92
2019-02-28T06:04:40.051Z,57.05
2019-02-28T06:07:10.612Z,56.92
2019-02-28T06:09:41.079Z,56.93
2019-02-28T06:12:11.576Z,56.89
2019-02-28T06:14:42.211Z,57.02
2019-02-28T06:17:12.685Z,56.87
2019-02-28T06:19:44.264Z,56.72
2019-02-28T06:22:14.823Z,56.70
2019-02-28T06:24:45.958Z,56.43
2019-02-28T06:27:16.499Z,56.10
2019-02-28T06:29:47.021Z,55.98
2019-02-28T06:32:23.208Z,55.78
2019-02-28T06:34:49.826Z,55.11
2019-02-28T06:37:20.311Z,55.02
2019-02-28T06:39:50.892Z,54.65
2019-02-28T06:42:21.517Z,54.25
2019-02-28T06:44:52.009Z,53.87
2019-02-28T06:47:22.581Z,53.62
2019-02-28T06:49:53.129Z,53.27
2019-02-28T06:52:25.275Z,53.02
2019-02-28T06:54:55.818Z,52.77
2019-02-28T06:57:30.339Z,52.62
2019-02-28T07:00:00.886Z,52.45
2019-02-28T07:02:32.992Z,52.19
2019-02-28T07:05:03.563Z,51.83
2019-02-28T07:07:34.123Z,51.48
2019-02-28T07:10:09.653Z,51.40
2019-02-28T07:12:41.457Z,51.42
2019-02-28T07:15:12.235Z,51.00
2019-02-28T07:17:46.303Z,50.71
2019-02-28T07:20:18.323Z,50.73
2019-02-28T07:22:54.696Z,50.70
2019-02-28T07:25:21.118Z,50.92
2019-02-28T07:27:51.650Z,51.00
2019-02-28T07:30:22.181Z,51.02
2019-02-28T07:32:52.644Z,51.02
2019-02-28T07:35:23.144Z,51.15
2019-02-28T07:37:54.536Z,50.68
2019-02-28T07:40:25.166Z,50.82
2019-02-28T07:42:55.700Z,51.17
2019-02-28T07:45:26.283Z,51.20
2019-02-28T07:47:56.921Z,51.22
2019-02-28T07:50:27.552Z,51.66
2019-02-28T07:52:58.025Z,51.65
2019-02-28T07:55:30.513Z,51.60
2019-02-28T07:58:00.781Z,51.84
2019-02-28T08:00:31.616Z,51.71
2019-02-28T08:03:02.148Z,51.78
2019-02-28T08:05:32.634Z,51.54
2019-02-28T08:08:03.417Z,51.52
2019-02-28T08:10:34.934Z,51.49
2019-02-28T08:13:05.496Z,51.63
2019-02-28T08:15:35.968Z,51.28
2019-02-28T08:18:06.566Z,51.34
2019-02-28T08:20:37.301Z,51.11
2019-02-28T08:23:08.064Z,51.29
2019-02-28T08:25:39.724Z,51.17
2019-02-28T08:28:10.944Z,51.03
2019-02-28T08:30:41.575Z,51.11
2019-02-28T08:33:12.126Z,50.92
2019-02-28T08:35:42.740Z,50.87
2019-02-28T08:38:13.166Z,51.03
2019-02-28T08:40:43.696Z,50.78
2019-02-28T08:43:14.323Z,50.81
2019-02-28T08:45:44.893Z,50.99
2019-02-28T08:48:15.365Z,50.95
2019-02-28T08:50:45.919Z,50.75
2019-02-28T08:53:16.444Z,50.42
2019-02-28T08:55:47.085Z,50.25
2019-02-28T08:58:17.718Z,50.63
2019-02-28T09:00:48.285Z,50.72
2019-02-28T09:03:18.830Z,50.56
2019-02-28T09:05:49.314Z,50.79
2019-02-28T09:08:22.438Z,50.91
2019-02-28T09:10:52.133Z,51.08
2019-02-28T09:13:22.759Z,50.86
2019-02-28T09:15:53.338Z,50.70
2019-02-28T09:18:24.014Z,50.67
2019-02-28T09:20:54.643Z,50.92
2019-02-28T09:23:25.269Z,50.88
2019-02-28T09:25:56.765Z,50.45
2019-02-28T09:28:28.034Z,50.48
2019-02-28T09:31:01.338Z,50.37
2019-02-28T09:33:31.287Z,50.17
2019-02-28T09:36:01.917Z,50.12
2019-02-28T09:38:33.676Z,50.08
2019-02-28T09:41:05.293Z,49.55
2019-02-28T09:43:35.972Z,49.33
2019-02-28T09:46:06.705Z,49.04
2019-02-28T09:48:38.017Z,49.04
2019-02-28T09:51:09.611Z,48.79
2019-02-28T09:53:40.107Z,48.13
2019-02-28T09:56:10.671Z,48.28
2019-02-28T09:58:41.146Z,48.04
2019-02-28T10:01:12.616Z,47.55
2019-02-28T10:03:43.109Z,48.15
2019-02-28T10:06:16.368Z,48.26
2019-02-28T10:08:45.891Z,48.26
2019-02-28T10:11:16.417Z,48.12
2019-02-28T10:13:49.644Z,47.96
2019-02-28T10:16:19.218Z,47.32
2019-02-28T10:18:49.750Z,47.29
2019-02-28T10:21:20.314Z,47.14
2019-02-28T10:23:53.408Z,46.58
2019-02-28T10:26:23.293Z,46.92
2019-02-28T10:28:54.027Z,47.07
2019-02-28T10:31:35.141Z,46.87
2019-02-28T10:33:56.954Z,46.79
2019-02-28T10:36:27.553Z,46.73
2019-02-28T10:38:58.198Z,46.38
2019-02-28T10:41:31.152Z,46.55
2019-02-28T10:44:00.993Z,46.87
2019-02-28T10:46:31.633Z,46.91
2019-02-28T10:49:02.263Z,47.08
2019-02-28T10:51:32.891Z,46.65
2019-02-28T10:54:04.562Z,46.47
2019-02-28T10:56:35.091Z,45.94
2019-02-28T10:59:05.714Z,46.31
2019-02-28T11:01:39.171Z,46.37
2019-02-28T11:04:08.549Z,45.34
2019-02-28T11:06:39.665Z,44.93
2019-02-28T11:09:13.481Z,44.73
2019-02-28T11:11:45.638Z,44.78
2019-02-28T11:14:16.642Z,44.08
2019-02-28T11:16:47.316Z,44.32
2019-02-28T11:19:19.433Z,44.17
2019-02-28T11:21:50.221Z,44.44
2019-02-28T11:24:23.978Z,44.64
2019-02-28T11:26:55.567Z,44.11
2019-02-28T11:29:26.179Z,44.71
2019-02-28T11:31:56.667Z,44.68
2019-02-28T11:34:28.361Z,45.12
2019-02-28T11:36:58.942Z,45.33
2019-02-28T11:39:30.542Z,45.13
2019-02-28T11:42:01.839Z,45.33
2019-02-28T11:44:32.399Z,45.32
2019-02-28T11:47:02.999Z,45.62
2019-02-28T11:49:33.744Z,45.66
2019-02-28T11:52:04.384Z,45.38
2019-02-28T11:54:35.105Z,45.44
2019-02-28T11:57:06.803Z,45.89
2019-02-28T11:59:37.608Z,45.79
2019-02-28T12:02:08.165Z,45.43
2019-02-28T12:04:40.494Z,45.30
2019-02-28T12:07:11.349Z,45.28
2019-02-28T12:09:42.075Z,45.67
2019-02-28T12:12:12.645Z,45.59
2019-02-28T12:14:43.247Z,45.65
2019-02-28T12:17:15.133Z,45.83
2019-02-28T12:19:47.659Z,45.73
2019-02-28T12:22:18.993Z,46.01
2019-02-28T12:24:49.561Z,45.64
2019-02-28T12:27:20.046Z,45.38
2019-02-28T12:29:50.624Z,45.32
2019-02-28T12:32:21.316Z,45.01
2019-02-28T12:34:51.810Z,44.21
2019-02-28T12:37:23.112Z,43.88
2019-02-28T12:39:53.776Z,44.18
2019-02-28T12:42:24.264Z,44.93
2019-02-28T12:44:54.837Z,44.61
2019-02-28T12:47:26.961Z,44.87
2019-02-28T12:49:57.897Z,44.74
2019-02-28T12:52:28.470Z,44.63
2019-02-28T12:54:59.023Z,44.79
2019-02-28T12:57:29.642Z,44.69
2019-02-28T13:00:00.298Z,44.58
2019-02-28T13:02:30.948Z,44.87
2019-02-28T13:05:01.541Z,44.80
2019-02-28T13:07:33.845Z,45.16
2019-02-28T13:10:07.067Z,44.80
2019-02-28T13:12:37.742Z,44.87
2019-02-28T13:15:13.071Z,44.79
2019-02-28T13:17:43.410Z,44.62
2019-02-28T13:20:16.806Z,44.86
2019-02-28T13:22:48.066Z,44.71
2019-02-28T13:25:19.363Z,44.65
2019-02-28T13:27:50.853Z,44.86
2019-02-28T13:30:23.077Z,44.95
2019-02-28T13:32:53.654Z,45.34
2019-02-28T13:35:29.978Z,45.39
2019-02-28T13:38:00.482Z,45.44
2019-02-28T13:40:31.039Z,45.50
2019-02-28T13:43:01.937Z,45.36
2019-02-28T13:45:32.833Z,44.99
2019-02-28T13:48:03.734Z,45.13
2019-02-28T13:50:36.386Z,45.00
2019-02-28T13:53:17.263Z,45.22
2019-02-28T13:55:42.055Z,45.50
2019-02-28T13:58:12.692Z,45.58
2019-02-28T14:00:45.799Z,45.68
2019-02-28T14:03:17.132Z,45.92
2019-02-28T14:05:47.794Z,45.80
2019-02-28T14:08:18.490Z,45.89
2019-02-28T14:10:49.328Z,45.92
2019-02-28T14:13:20.014Z,45.98
2019-02-28T14:15:52.933Z,45.94
2019-02-28T14:18:23.910Z,46.13
2019-02-28T14:20:54.940Z,46.40
2019-02-28T14:23:25.811Z,46.80
2019-02-28T14:25:56.511Z,46.96
2019-02-28T14:28:27.068Z,46.81
2019-02-28T14:30:58.700Z,47.36
2019-02-28T14:33:29.448Z,47.31
2019-02-28T14:36:00.126Z,47.47
2019-02-28T14:38:32.779Z,47.53
2019-02-28T14:41:03.082Z,47.87
2019-02-28T14:43:33.713Z,48.11
2019-02-28T14:46:04.370Z,48.14
2019-02-28T14:48:36.513Z,48.38
2019-02-28T14:51:07.178Z,48.58
2019-02-28T14:53:37.824Z,48.87
2019-02-28T14:56:08.500Z,49.24
2019-02-28T14:58:39.145Z,49.73
2019-02-28T15:01:09.982Z,49.85
2019-02-28T15:03:41.743Z,49.91
2019-02-28T15:06:12.279Z,50.09
2019-02-28T15:08:42.751Z,50.29
2019-02-28T15:11:13.306Z,50.65
2019-02-28T15:13:43.964Z,50.68
2019-02-28T15:16:14.562Z,50.85
2019-02-28T15:18:47.461Z,51.00
2019-02-28T15:21:17.909Z,51.31
2019-02-28T15:23:48.402Z,51.52
2019-02-28T15:26:19.201Z,51.93
2019-02-28T15:28:50.834Z,52.18
2019-02-28T15:31:21.330Z,52.60
2019-02-28T15:33:52.825Z,52.87
2019-02-28T15:36:24.283Z,53.35
2019-02-28T15:38:55.596Z,53.64
2019-02-28T15:41:26.254Z,54.21
2019-02-28T15:43:56.820Z,54.63
2019-02-28T15:46:27.383Z,55.08
2019-02-28T15:48:57.858Z,55.52
2019-02-28T15:51:29.278Z,56.21
2019-02-28T15:54:00.753Z,56.81
2019-02-28T15:56:31.281Z,57.23
2019-02-28T15:59:03.409Z,57.74
2019-02-28T16:01:34.057Z,58.05
2019-02-28T16:04:04.619Z,58.49
2019-02-28T16:06:35.358Z,59.02
2019-02-28T16:09:06.946Z,59.35
2019-02-28T16:11:40.958Z,59.93
2019-02-28T16:14:14.552Z,60.09
2019-02-28T16:16:42.702Z,60.83
2019-02-28T16:19:14.253Z,61.33
2019-02-28T16:21:44.782Z,61.70
2019-02-28T16:24:15.358Z,62.36
2019-02-28T16:26:45.848Z,62.79
2019-02-28T16:29:20.693Z,63.30
2019-02-28T16:31:48.750Z,63.76
2019-02-28T16:34:19.351Z,64.24
2019-02-28T16:36:49.910Z,64.42
2019-02-28T16:39:20.480Z,64.71
2019-02-28T16:41:50.971Z,65.02
2019-02-28T16:44:21.614Z,65.36
2019-02-28T16:46:52.125Z,65.96
2019-02-28T16:49:22.615Z,66.28
2019-02-28T16:51:53.328Z,66.56
2019-02-28T16:54:25.775Z,66.84
2019-02-28T16:56:56.111Z,67.12
2019-02-28T16:59:28.490Z,67.49
2019-02-28T17:01:59.571Z,67.45
2019-02-28T17:04:30.357Z,68.02
2019-02-28T17:07:02.625Z,68.22
2019-02-28T17:09:34.657Z,68.92
2019-02-28T17:12:10.206Z,69.44
2019-02-28T17:14:40.763Z,69.22
2019-02-28T17:17:12.891Z,71.87
2019-02-28T17:19:43.482Z,69.36
2019-02-28T17:22:14.110Z,70.15
2019-02-28T17:24:46.092Z,70.14
2019-02-28T17:27:22.754Z,70.43
2019-02-28T17:30:00.193Z,70.64
2019-02-28T17:32:31.404Z,70.44
2019-02-28T17:35:02.335Z,70.77
2019-02-28T17:37:33.362Z,70.80
2019-02-28T17:40:06.775Z,70.92
2019-02-28T17:42:38.599Z,71.19
2019-02-28T17:45:16.357Z,71.45
2019-02-28T17:48:12.859Z,71.60
2019-02-28T17:50:46.881Z,71.68
2019-02-28T17:53:20.691Z,72.04
2019-02-28T17:56:03.885Z,72.25
2019-02-28T17:59:04.482Z,72.22
2019-02-28T18:01:53.463Z,72.51
2019-02-28T18:04:39.309Z,72.50
2019-02-28T18:07:26.510Z,72.67
2019-02-28T18:10:20.951Z,72.97
2019-02-28T18:13:00.571Z,72.62
2019-02-28T18:15:34.379Z,72.34
2019-02-28T18:18:30.916Z,72.35
2019-02-28T18:21:21.359Z,72.47
2019-02-28T18:24:22.304Z,72.53
2019-02-28T18:27:18.880Z,72.59
2019-02-28T18:30:28.853Z,72.67
2019-02-28T18:32:59.407Z,72.82
2019-02-28T18:35:32.527Z,73.15
2019-02-28T18:38:03.223Z,73.80
2019-02-28T18:40:33.844Z,73.78
2019-02-28T18:43:04.464Z,73.55
2019-02-28T18:45:35.020Z,73.60
2019-02-28T18:48:05.642Z,73.44
2019-02-28T18:50:36.138Z,73.74
2019-02-28T18:53:06.910Z,74.40
2019-02-28T18:55:37.479Z,73.88
2019-02-28T18:58:08.110Z,74.45
2019-02-28T19:00:38.602Z,74.43
2019-02-28T19:03:09.342Z,75.11
2019-02-28T19:05:39.905Z,73.70
2019-02-28T19:08:10.605Z,73.69
2019-02-28T19:10:41.170Z,73.56
2019-02-28T19:13:11.774Z,73.40
2019-02-28T19:15:42.401Z,73.04
2019-02-28T19:18:13.039Z,73.40
2019-02-28T19:20:43.606Z,73.57
2019-02-28T19:23:14.161Z,73.84
2019-02-28T19:25:45.758Z,73.89
2019-02-28T19:28:16.386Z,74.46
2019-02-28T19:30:47.025Z,73.88
2019-02-28T19:33:17.615Z,74.19
2019-02-28T19:35:48.281Z,74.52
2019-02-28T19:38:18.925Z,74.47
2019-02-28T19:40:49.556Z,74.54
2019-02-28T19:43:20.493Z,75.80
2019-02-28T19:45:54.130Z,74.96
2019-02-28T19:48:24.700Z,75.14
2019-02-28T19:50:55.369Z,75.45
2019-02-28T19:53:25.931Z,75.16
2019-02-28T19:55:56.827Z,75.18
2019-02-28T19:58:27.512Z,75.06
2019-02-28T20:00:58.047Z,74.93
2019-02-28T20:03:28.629Z,75.17
2019-02-28T20:05:59.119Z,75.18
2019-02-28T20:08:29.698Z,75.26
2019-02-28T20:11:01.267Z,75.05
2019-02-28T20:13:31.913Z,74.87
2019-02-28T20:16:02.512Z,74.36
2019-02-28T20:18:34.178Z,74.25
2019-02-28T20:21:04.706Z,74.07
2019-02-28T20:23:35.332Z,73.96
2019-02-28T20:26:06.210Z,74.12
2019-02-28T20:28:36.844Z,74.34
2019-02-28T20:31:07.468Z,74.29
2019-02-28T20:33:38.029Z,74.54
2019-02-28T20:36:08.699Z,75.15
2019-02-28T20:38:39.344Z,75.55
2019-02-28T20:41:09.970Z,75.07
2019-02-28T20:43:40.569Z,74.80
2019-02-28T20:46:11.242Z,74.95
2019-02-28T20:48:41.872Z,75.49
2019-02-28T20:51:12.502Z,75.90
2019-02-28T20:53:43.141Z,76.21
2019-02-28T20:56:13.769Z,76.82
2019-02-28T20:58:44.397Z,76.91
2019-02-28T21:01:16.057Z,77.27
2019-02-28T21:03:46.799Z,77.07
2019-02-28T21:06:17.430Z,77.06
2019-02-28T21:08:48.062Z,77.30
2019-02-28T21:11:18.724Z,77.06
2019-02-28T21:13:49.428Z,76.71
2019-02-28T21:16:20.073Z,76.65
2019-02-28T21:18:50.697Z,76.28
2019-02-28T21:21:21.324Z,76.31
